createdAt,value
2017-12-05T00:00:41.190Z,7.80
2017-12-05T00:03:10.050Z,7.70
2017-12-05T00:05:38.446Z,7.70
2017-12-05T00:08:07.866Z,7.60
2017-12-05T00:10:36.973Z,7.50
2017-12-05T00:13:05.261Z,7.40
2017-12-05T00:15:34.725Z,7.40
2017-12-05T00:20:32.598Z,7.60
2017-12-05T00:23:02.418Z,7.70
2017-12-05T00:25:31.543Z,7.70
2017-12-05T00:27:59.886Z,7.70
2017-12-05T00:30:28.947Z,7.70
2017-12-05T00:32:58.104Z,7.60
2017-12-05T00:35:27.386Z,7.70
2017-12-05T00:37:56.461Z,7.50
2017-12-05T00:40:25.238Z,7.60
2017-12-05T00:42:53.526Z,7.50
2017-12-05T00:45:22.671Z,7.50
2017-12-05T00:47:52.437Z,7.50
2017-12-05T00:50:20.710Z,7.50
2017-12-05T00:52:49.037Z,7.50
2017-12-05T00:55:17.363Z,7.50
2017-12-05T00:57:46.448Z,7.40
2017-12-05T01:00:14.830Z,7.40
2017-12-05T01:02:43.943Z,7.30
2017-12-05T01:05:13.368Z,7.20
2017-12-05T01:07:42.600Z,7.20
2017-12-05T01:10:11.714Z,7.20
2017-12-05T01:12:46.593Z,7.20
2017-12-05T01:15:15.062Z,7.20
2017-12-05T01:17:43.518Z,7.20
2017-12-05T01:20:11.811Z,7.20
2017-12-05T01:22:41.454Z,7.20
2017-12-05T01:25:09.735Z,7.20
2017-12-05T01:27:38.068Z,7.10
2017-12-05T01:30:06.402Z,7.10
2017-12-05T01:32:34.693Z,7.00
2017-12-05T01:35:04.138Z,6.90
2017-12-05T01:37:32.521Z,6.80
2017-12-05T01:40:00.895Z,6.90
2017-12-05T01:42:29.182Z,6.90
2017-12-05T01:44:59.111Z,7.00
2017-12-05T01:47:28.163Z,7.00
2017-12-05T01:49:56.541Z,7.00
2017-12-05T01:52:25.650Z,6.90
2017-12-05T01:54:54.044Z,7.00
2017-12-05T01:57:22.725Z,7.00
2017-12-05T01:59:51.078Z,7.00
2017-12-05T02:02:20.532Z,7.00
2017-12-05T02:04:49.210Z,6.90
2017-12-05T02:07:18.301Z,6.90
2017-12-05T02:09:47.357Z,7.00
2017-12-05T02:12:15.630Z,7.00
2017-12-05T02:14:43.973Z,7.00
2017-12-05T02:17:12.278Z,7.00
2017-12-05T02:19:40.631Z,7.00
2017-12-05T02:22:08.969Z,7.00
2017-12-05T02:24:38.027Z,7.00
2017-12-05T02:27:06.745Z,7.10
2017-12-05T02:29:35.127Z,7.00
2017-12-05T02:32:03.442Z,7.10
2017-12-05T02:34:31.731Z,7.00
2017-12-05T02:39:29.989Z,7.10
2017-12-05T02:41:58.663Z,7.10
2017-12-05T02:44:27.037Z,7.10
2017-12-05T02:46:55.317Z,7.20
2017-12-05T02:49:23.598Z,7.10
2017-12-05T02:51:51.966Z,7.00
2017-12-05T02:54:21.462Z,7.10
2017-12-05T02:56:49.754Z,7.20
2017-12-05T02:59:18.176Z,7.30
2017-12-05T03:01:46.454Z,7.30
2017-12-05T03:04:14.742Z,7.30
2017-12-05T03:06:44.695Z,7.30
2017-12-05T03:09:14.166Z,7.30
2017-12-05T03:11:43.209Z,7.20
2017-12-05T03:14:12.314Z,7.20
2017-12-05T03:16:41.367Z,7.30
2017-12-05T03:19:10.789Z,7.30
2017-12-05T03:21:39.130Z,7.30
2017-12-05T03:24:07.414Z,7.30
2017-12-05T03:26:36.836Z,7.30
2017-12-05T03:29:05.204Z,7.30
2017-12-05T03:31:34.994Z,7.20
2017-12-05T03:34:03.278Z,7.20
2017-12-05T03:36:31.614Z,7.30
2017-12-05T03:38:59.910Z,7.40
2017-12-05T03:41:29.097Z,7.40
2017-12-05T03:43:58.227Z,7.40
2017-12-05T03:46:26.540Z,7.40
2017-12-05T03:48:54.818Z,7.40
2017-12-05T03:51:24.346Z,7.40
2017-12-05T03:53:53.018Z,7.40
2017-12-05T03:56:21.307Z,7.40
2017-12-05T03:58:51.162Z,7.40
2017-12-05T04:03:48.971Z,7.40
2017-12-05T04:06:17.314Z,7.30
2017-12-05T04:08:46.736Z,7.20
2017-12-05T04:11:15.786Z,7.30
2017-12-05T04:13:44.905Z,7.40
2017-12-05T04:16:13.191Z,7.40
2017-12-05T04:18:41.477Z,7.40
2017-12-05T04:23:40.480Z,7.40
2017-12-05T04:26:09.530Z,7.30
2017-12-05T04:28:38.266Z,7.30
2017-12-05T04:31:07.698Z,7.30
2017-12-05T04:33:37.745Z,7.30
2017-12-05T04:36:07.431Z,7.20
2017-12-05T04:38:36.105Z,7.10
2017-12-05T04:41:05.898Z,7.20
2017-12-05T04:43:34.253Z,7.20
2017-12-05T04:46:02.539Z,7.20
2017-12-05T04:48:30.818Z,7.10
2017-12-05T04:50:59.174Z,7.20
2017-12-05T04:53:27.463Z,7.10
2017-12-05T04:55:55.745Z,7.10
2017-12-05T04:58:24.115Z,7.10
2017-12-05T05:00:53.170Z,7.10
2017-12-05T05:03:22.222Z,7.20
2017-12-05T05:05:51.706Z,7.10
2017-12-05T05:08:19.991Z,7.10
2017-12-05T05:10:48.669Z,7.00
2017-12-05T05:13:17.776Z,7.20
2017-12-05T05:15:46.059Z,7.20
2017-12-05T05:18:14.736Z,7.10
2017-12-05T05:20:43.082Z,7.20
2017-12-05T05:23:12.116Z,7.20
2017-12-05T05:25:40.413Z,7.20
2017-12-05T05:28:08.763Z,7.20
2017-12-05T05:30:37.047Z,7.20
2017-12-05T05:33:05.330Z,7.20
2017-12-05T05:35:33.683Z,7.30
2017-12-05T05:38:01.979Z,7.30
2017-12-05T05:40:31.772Z,7.30
2017-12-05T05:43:00.111Z,7.40
2017-12-05T05:45:29.534Z,7.30
2017-12-05T05:47:57.819Z,7.30
2017-12-05T05:50:26.184Z,7.30
2017-12-05T05:52:55.599Z,7.30
2017-12-05T05:55:24.281Z,7.40
2017-12-05T05:57:52.631Z,7.40
2017-12-05T06:00:21.678Z,7.40
2017-12-05T06:02:51.099Z,7.40
2017-12-05T06:05:19.842Z,7.40
2017-12-05T06:07:48.527Z,7.40
2017-12-05T06:10:16.812Z,7.40
2017-12-05T06:12:45.146Z,7.30
2017-12-05T06:15:14.199Z,7.30
2017-12-05T06:17:42.475Z,7.40
2017-12-05T06:20:10.820Z,7.40
2017-12-05T06:22:39.876Z,7.40
2017-12-05T06:25:09.295Z,7.40
2017-12-05T06:27:39.002Z,7.50
2017-12-05T06:30:08.054Z,7.30
2017-12-05T06:35:05.926Z,7.20
2017-12-05T06:37:34.226Z,7.30
2017-12-05T06:40:02.501Z,7.30
2017-12-05T06:42:31.615Z,7.30
2017-12-05T06:45:01.039Z,7.30
2017-12-05T06:47:29.841Z,7.40
2017-12-05T06:49:58.186Z,7.30
2017-12-05T06:52:26.476Z,7.30
2017-12-05T06:54:54.754Z,7.40
2017-12-05T06:57:23.085Z,7.50
2017-12-05T06:59:51.374Z,7.40
2017-12-05T07:02:19.662Z,7.40
2017-12-05T07:04:48.763Z,7.40
2017-12-05T07:07:17.055Z,7.40
2017-12-05T07:12:16.414Z,7.30
2017-12-05T07:14:45.834Z,7.30
2017-12-05T07:17:14.250Z,7.30
2017-12-05T07:19:43.370Z,7.40
2017-12-05T07:22:11.644Z,7.30
2017-12-05T07:24:40.694Z,7.30
2017-12-05T07:27:09.797Z,7.40
2017-12-05T07:29:38.089Z,7.30
2017-12-05T07:32:06.371Z,7.30
2017-12-05T07:34:34.706Z,7.30
2017-12-05T07:37:03.000Z,7.30
2017-12-05T07:39:31.338Z,7.20
2017-12-05T07:42:00.410Z,7.20
2017-12-05T07:44:29.007Z,7.20
2017-12-05T07:46:57.289Z,7.30
2017-12-05T07:49:25.669Z,7.30
2017-12-05T07:51:55.112Z,7.30
2017-12-05T07:54:23.398Z,7.20
2017-12-05T07:56:52.880Z,7.20
2017-12-05T07:59:21.930Z,7.20
2017-12-05T08:01:50.238Z,7.30
2017-12-05T08:04:18.587Z,7.40
2017-12-05T08:06:47.260Z,7.30
2017-12-05T08:09:15.545Z,7.40
2017-12-05T08:11:43.926Z,7.40
2017-12-05T08:14:12.235Z,7.40
2017-12-05T08:16:40.527Z,7.30
2017-12-05T08:19:08.902Z,7.40
2017-12-05T08:21:37.983Z,7.40
2017-12-05T08:24:06.263Z,7.40
2017-12-05T08:26:34.609Z,7.50
2017-12-05T08:29:03.662Z,7.40
2017-12-05T08:31:31.950Z,7.40
2017-12-05T08:34:00.695Z,7.50
2017-12-05T08:36:29.743Z,7.50
2017-12-05T08:38:59.539Z,7.40
2017-12-05T08:41:27.915Z,7.50
2017-12-05T08:43:56.974Z,7.50
2017-12-05T08:46:25.266Z,7.40
2017-12-05T08:48:53.606Z,7.50
2017-12-05T08:51:21.900Z,7.40
2017-12-05T08:53:50.197Z,7.40
2017-12-05T08:56:18.542Z,7.40
2017-12-05T08:58:47.602Z,7.50
2017-12-05T09:01:15.879Z,7.50
2017-12-05T09:03:44.994Z,7.50
2017-12-05T09:06:14.042Z,7.50
2017-12-05T09:08:42.328Z,7.50
2017-12-05T09:11:10.667Z,7.40
2017-12-05T09:13:38.945Z,7.50
2017-12-05T09:16:07.234Z,7.40
2017-12-05T09:18:37.026Z,7.40
2017-12-05T09:21:06.095Z,7.40
2017-12-05T09:23:34.780Z,7.50
2017-12-05T09:26:03.899Z,7.50
2017-12-05T09:28:32.946Z,7.60
2017-12-05T09:31:01.234Z,7.60
2017-12-05T09:33:29.589Z,7.60
2017-12-05T09:35:59.369Z,7.60
2017-12-05T09:38:27.670Z,7.70
2017-12-05T09:40:56.796Z,7.70
2017-12-05T09:43:25.475Z,7.70
2017-12-05T09:45:53.786Z,7.70
2017-12-05T09:50:52.439Z,7.60
2017-12-05T09:53:20.714Z,7.60
2017-12-05T09:55:49.054Z,7.60
2017-12-05T10:03:16.425Z,7.70
2017-12-05T10:05:45.475Z,7.60
2017-12-05T10:08:15.450Z,7.80
2017-12-05T10:10:43.801Z,7.70
2017-12-05T10:15:42.739Z,7.90
2017-12-05T10:18:11.479Z,7.90
2017-12-05T10:20:39.778Z,7.80
2017-12-05T10:23:08.062Z,7.80
2017-12-05T10:25:37.534Z,7.90
2017-12-05T10:28:05.816Z,7.90
2017-12-05T10:30:34.106Z,8.00
2017-12-05T10:33:03.215Z,7.90
2017-12-05T10:35:32.626Z,7.90
2017-12-05T10:38:00.919Z,8.00
2017-12-05T10:40:29.257Z,8.00
2017-12-05T10:42:57.962Z,8.00
2017-12-05T10:45:27.019Z,8.00
2017-12-05T10:47:55.755Z,8.10
2017-12-05T10:50:24.037Z,7.90
2017-12-05T10:55:23.943Z,8.10
2017-12-05T10:57:52.982Z,8.10
2017-12-05T11:00:21.266Z,8.10
2017-12-05T11:02:49.610Z,8.20
2017-12-05T11:05:17.910Z,8.10
2017-12-05T11:10:16.542Z,8.10
2017-12-05T11:12:44.822Z,8.10
2017-12-05T11:15:13.108Z,8.20
2017-12-05T11:17:48.823Z,8.10
2017-12-05T11:20:17.102Z,8.10
2017-12-05T11:22:46.894Z,8.20
2017-12-05T11:25:15.701Z,8.10
2017-12-05T11:27:44.387Z,8.10
2017-12-05T11:30:12.666Z,8.20
2017-12-05T11:32:41.014Z,8.30
2017-12-05T11:35:10.062Z,8.20
2017-12-05T11:37:39.118Z,8.10
2017-12-05T11:40:07.470Z,8.20
2017-12-05T11:42:35.760Z,8.20
2017-12-05T11:47:34.378Z,8.30
2017-12-05T11:50:03.428Z,8.20
2017-12-05T11:52:32.476Z,8.20
2017-12-05T11:55:00.815Z,8.30
2017-12-05T11:57:30.234Z,8.30
2017-12-05T11:59:58.591Z,8.40
2017-12-05T12:02:26.940Z,8.30
2017-12-05T12:04:55.216Z,8.30
2017-12-05T12:07:24.261Z,8.40
2017-12-05T12:12:22.582Z,8.40
2017-12-05T12:14:50.867Z,8.40
2017-12-05T12:17:19.210Z,8.40
2017-12-05T12:19:48.646Z,8.50
2017-12-05T12:22:16.932Z,8.50
2017-12-05T12:24:45.265Z,8.50
2017-12-05T12:27:13.563Z,8.50
2017-12-05T12:29:41.861Z,8.50
2017-12-05T12:32:10.198Z,8.50
2017-12-05T12:37:08.770Z,8.50
2017-12-05T12:39:38.267Z,8.50
2017-12-05T12:42:06.555Z,8.50
2017-12-05T12:44:34.843Z,8.50
2017-12-05T12:47:03.182Z,8.50
2017-12-05T12:49:31.863Z,8.50
2017-12-05T12:52:00.159Z,8.50
2017-12-05T12:54:29.076Z,8.40
2017-12-05T12:56:58.494Z,8.40
2017-12-05T12:59:26.843Z,8.50
2017-12-05T13:01:56.710Z,8.50
2017-12-05T13:04:25.003Z,8.50
2017-12-05T13:06:53.290Z,8.40
2017-12-05T13:11:51.146Z,8.50
2017-12-05T13:14:19.439Z,8.60
2017-12-05T13:16:47.778Z,8.60
2017-12-05T13:19:16.059Z,8.50
2017-12-05T13:21:44.348Z,8.60
2017-12-05T13:24:13.079Z,8.50
2017-12-05T13:26:42.506Z,8.70
2017-12-05T13:29:10.790Z,8.60
2017-12-05T13:31:39.129Z,8.60
2017-12-05T13:34:08.194Z,8.60
2017-12-05T13:36:37.250Z,8.50
2017-12-05T13:39:05.614Z,8.50
2017-12-05T13:41:34.291Z,8.60
2017-12-05T13:44:02.579Z,8.70
2017-12-05T13:46:30.951Z,8.70
2017-12-05T13:48:59.238Z,8.70
2017-12-05T13:53:57.895Z,8.70
2017-12-05T13:56:28.173Z,8.70
2017-12-05T13:58:57.023Z,8.70
2017-12-05T14:01:25.935Z,8.60
2017-12-05T14:03:54.234Z,8.50
2017-12-05T14:06:33.951Z,8.50
2017-12-05T14:09:02.229Z,8.60
2017-12-05T14:11:30.510Z,8.40
2017-12-05T14:13:58.850Z,8.50
2017-12-05T14:16:27.140Z,8.60
2017-12-05T14:18:56.185Z,8.60
2017-12-05T14:21:24.527Z,8.70
2017-12-05T14:23:52.817Z,8.70
2017-12-05T14:26:21.866Z,8.60
2017-12-05T14:28:50.611Z,8.60
2017-12-05T14:31:18.898Z,8.70
2017-12-05T14:33:47.178Z,8.70
2017-12-05T14:36:15.510Z,8.70
2017-12-05T14:38:43.793Z,8.60
2017-12-05T14:41:12.071Z,8.70
2017-12-05T14:43:40.446Z,8.60
2017-12-05T14:46:09.868Z,8.70
2017-12-05T14:48:38.155Z,8.60
2017-12-05T14:51:06.647Z,8.70
2017-12-05T14:53:35.693Z,8.50
2017-12-05T14:56:03.986Z,8.60
2017-12-05T14:58:32.515Z,8.70
2017-12-05T15:01:01.195Z,8.70
2017-12-05T15:03:29.940Z,8.70
2017-12-05T15:05:59.063Z,8.70
2017-12-05T15:08:28.171Z,8.70
2017-12-05T15:10:56.466Z,8.80
2017-12-05T15:15:59.013Z,8.80
2017-12-05T15:18:27.296Z,8.80
2017-12-05T15:20:55.578Z,8.70
2017-12-05T15:23:24.526Z,8.70
2017-12-05T15:25:53.946Z,8.60
2017-12-05T15:28:22.234Z,8.70
2017-12-05T15:30:51.643Z,8.60
2017-12-05T15:33:20.322Z,8.70
2017-12-05T15:35:48.598Z,8.60
2017-12-05T15:38:16.940Z,8.60
2017-12-05T15:40:45.617Z,8.70
2017-12-05T15:43:13.899Z,8.60
2017-12-05T15:45:42.239Z,8.70
2017-12-05T15:48:10.522Z,8.70
2017-12-05T15:50:38.816Z,8.60
2017-12-05T15:53:07.142Z,8.60
2017-12-05T15:55:35.426Z,8.60
2017-12-05T15:58:03.710Z,8.60
2017-12-05T16:00:32.829Z,8.50
2017-12-05T16:03:01.113Z,8.50
2017-12-05T16:05:29.511Z,8.60
2017-12-05T16:07:59.362Z,8.70
2017-12-05T16:10:27.643Z,8.60
2017-12-05T16:12:55.931Z,8.60
2017-12-05T16:15:25.402Z,8.60
2017-12-05T16:17:54.464Z,8.50
2017-12-05T16:20:22.751Z,8.50
2017-12-05T16:27:51.849Z,8.50
2017-12-05T16:30:20.181Z,8.60
2017-12-05T16:32:48.629Z,8.50
2017-12-05T16:35:16.957Z,8.70
2017-12-05T16:37:45.376Z,8.70
2017-12-05T16:40:15.173Z,8.70
2017-12-05T16:42:43.454Z,8.70
2017-12-05T16:45:11.907Z,8.70
2017-12-05T16:47:40.959Z,8.70
2017-12-05T16:50:09.524Z,8.50
2017-12-05T16:52:37.861Z,8.60
2017-12-05T16:55:06.145Z,8.70
2017-12-05T16:57:36.110Z,8.80
2017-12-05T17:00:04.454Z,8.70
2017-12-05T17:02:32.938Z,8.70
2017-12-05T17:05:01.715Z,8.60
2017-12-05T17:07:30.172Z,8.60
2017-12-05T17:09:58.455Z,8.60
2017-12-05T17:12:28.253Z,8.60
2017-12-05T17:14:56.700Z,8.70
2017-12-05T17:17:26.521Z,8.70
2017-12-05T17:19:54.797Z,8.60
2017-12-05T17:22:23.138Z,8.60
2017-12-05T17:24:52.639Z,8.60
2017-12-05T17:27:21.086Z,9.40
2017-12-05T17:32:19.374Z,8.60
2017-12-05T17:34:47.658Z,8.60
2017-12-05T17:37:16.018Z,8.60
2017-12-05T17:39:44.290Z,8.60
2017-12-05T17:44:43.490Z,8.60
2017-12-05T17:47:12.542Z,8.60
2017-12-05T17:49:41.587Z,8.50
2017-12-05T17:52:10.130Z,8.60
2017-12-05T17:54:40.074Z,8.60
2017-12-05T17:59:38.785Z,8.50
2017-12-05T18:02:07.135Z,8.60
2017-12-05T18:04:36.241Z,8.50
2017-12-05T18:07:04.602Z,8.60
2017-12-05T18:09:32.983Z,8.50
2017-12-05T18:12:01.415Z,8.50
2017-12-05T18:14:29.835Z,8.50
2017-12-05T18:16:58.294Z,8.50
2017-12-05T18:19:26.984Z,8.50
2017-12-05T18:21:55.410Z,8.50
2017-12-05T18:24:23.823Z,8.50
2017-12-05T18:26:52.622Z,8.50
2017-12-05T18:29:21.433Z,8.60
2017-12-05T18:31:49.795Z,8.70
2017-12-05T18:34:18.090Z,8.60
2017-12-05T18:36:46.446Z,8.60
2017-12-05T18:39:15.666Z,8.70
2017-12-05T18:41:44.008Z,8.60
2017-12-05T18:44:12.350Z,8.60
2017-12-05T18:46:40.771Z,8.60
2017-12-05T18:49:09.078Z,8.60
2017-12-05T18:51:37.439Z,8.70
2017-12-05T18:54:05.799Z,8.70
2017-12-05T18:56:34.322Z,8.70
2017-12-05T18:59:03.464Z,8.70
2017-12-05T19:01:31.891Z,8.60
2017-12-05T19:04:00.184Z,8.50
2017-12-05T19:06:29.029Z,8.60
2017-12-05T19:08:57.351Z,8.70
2017-12-05T19:13:56.058Z,8.50
2017-12-05T19:16:24.369Z,8.60
2017-12-05T19:18:53.447Z,8.60
2017-12-05T19:21:22.706Z,8.70
2017-12-05T19:23:51.835Z,8.80
2017-12-05T19:26:20.119Z,8.70
2017-12-05T19:28:49.250Z,8.70
2017-12-05T19:31:18.413Z,8.70
2017-12-05T19:36:16.387Z,8.60
2017-12-05T19:38:45.502Z,8.60
2017-12-05T19:41:13.783Z,8.70
2017-12-05T19:43:42.926Z,8.80
2017-12-05T19:48:40.732Z,8.70
2017-12-05T19:51:09.207Z,8.70
2017-12-05T19:53:37.503Z,8.70
2017-12-05T19:56:05.855Z,8.80
2017-12-05T19:58:34.738Z,8.80
2017-12-05T20:01:04.315Z,8.80
2017-12-05T20:03:32.646Z,8.80
2017-12-05T20:06:01.807Z,8.70
2017-12-05T20:11:00.219Z,8.80
2017-12-05T20:13:29.426Z,8.80
2017-12-05T20:15:58.591Z,8.80
2017-12-05T20:18:27.759Z,8.70
2017-12-05T20:20:56.113Z,8.70
2017-12-05T20:23:24.526Z,8.60
2017-12-05T20:25:53.584Z,8.70
2017-12-05T20:30:57.187Z,8.70
2017-12-05T20:33:26.615Z,8.70
2017-12-05T20:35:55.126Z,8.70
2017-12-05T20:38:23.532Z,8.70
2017-12-05T20:40:51.955Z,8.80
2017-12-05T20:43:21.386Z,8.80
2017-12-05T20:45:49.789Z,8.70
2017-12-05T20:48:19.722Z,8.60
2017-12-05T20:50:47.783Z,8.70
2017-12-05T20:53:15.934Z,8.70
2017-12-05T20:55:44.409Z,8.70
2017-12-05T20:58:12.498Z,8.70
2017-12-05T21:00:40.672Z,8.70
2017-12-05T21:03:09.147Z,8.60
2017-12-05T21:05:37.189Z,8.70
2017-12-05T21:08:05.790Z,8.70
2017-12-05T21:10:33.990Z,8.60
2017-12-05T21:13:02.035Z,8.70
2017-12-05T21:15:31.072Z,8.70
2017-12-05T21:17:59.882Z,8.70
2017-12-05T21:22:59.036Z,8.60
2017-12-05T21:25:27.126Z,8.70
2017-12-05T21:27:55.182Z,8.70
2017-12-05T21:30:23.798Z,8.60
2017-12-05T21:32:51.833Z,8.70
2017-12-05T21:35:19.925Z,8.80
2017-12-05T21:37:48.098Z,8.70
2017-12-05T21:45:14.942Z,8.70
2017-12-05T21:47:44.086Z,8.70
2017-12-05T21:52:41.501Z,8.70
2017-12-05T21:55:09.569Z,8.70
2017-12-05T21:57:38.931Z,8.50
2017-12-05T22:00:07.041Z,8.50
2017-12-05T22:02:35.086Z,8.50
2017-12-05T22:05:03.138Z,8.50
2017-12-05T22:07:31.254Z,8.70
2017-12-05T22:10:00.378Z,8.50
2017-12-05T22:12:29.826Z,8.40
2017-12-05T22:14:58.207Z,8.60
2017-12-05T22:17:26.668Z,8.60
2017-12-05T22:19:56.146Z,8.60
2017-12-05T22:22:24.553Z,8.70
2017-12-05T22:24:52.826Z,8.70
2017-12-05T22:29:52.218Z,8.70
2017-12-05T22:32:20.503Z,8.70
2017-12-05T22:34:49.554Z,8.70
2017-12-05T22:37:18.652Z,8.70
2017-12-05T22:39:48.441Z,8.70
2017-12-05T22:42:16.727Z,8.60
2017-12-05T22:44:45.087Z,8.70
2017-12-05T22:47:14.879Z,8.70
2017-12-05T22:49:43.163Z,8.70
2017-12-05T22:52:11.503Z,8.60
2017-12-05T22:54:39.793Z,8.70
2017-12-05T22:57:08.081Z,8.50
2017-12-05T22:59:36.418Z,8.70
2017-12-05T23:02:04.701Z,8.70
2017-12-05T23:04:32.997Z,8.60
2017-12-05T23:07:01.816Z,8.70
2017-12-05T23:09:30.060Z,8.60
2017-12-05T23:11:59.106Z,8.60
2017-12-05T23:14:27.778Z,8.70
2017-12-05T23:16:56.830Z,8.70
2017-12-05T23:21:54.735Z,8.80
2017-12-05T23:24:23.795Z,8.70
2017-12-05T23:26:52.853Z,8.70
2017-12-05T23:29:21.194Z,8.70
2017-12-05T23:31:49.482Z,8.80
2017-12-05T23:34:19.270Z,8.60
2017-12-05T23:36:47.622Z,8.70
2017-12-05T23:39:16.665Z,8.70
2017-12-05T23:41:44.956Z,8.60
2017-12-05T23:44:13.698Z,8.50
2017-12-05T23:46:42.378Z,8.50
2017-12-05T23:49:10.670Z,8.50
2017-12-05T23:51:40.838Z,8.60
2017-12-05T23:54:09.124Z,8.60
2017-12-05T23:56:38.182Z,8.60
2017-12-05T23:59:06.522Z,8.60
